Time;durP1;ratioP1;P1;durP2;ratioP2;P2;SDS_P1;SDS_P2;PMS_P1;PMS_P2;Temp;Humidity;BMP_temperature;BMP_pressure;BME280_temperature;BME280_humidity;BME280_pressure;Samples;Min_cycle;Max_cycle;Signal;HPM_P1;HPM_P2
2023/08/31 00:00:15;;;;;;;9.63;6.40;;;;;;;;;;2090960;28;20408;-61
2023/08/31 00:01:18;;;;;;;9.07;6.72;;;;;;;;;;2090943;28;20045;-61
2023/08/31 00:02:19;;;;;;;7.07;6.35;;;;;;;;;;2091105;28;20036;-60
2023/08/31 00:03:20;;;;;;;7.43;6.28;;;;;;;;;;2090954;28;20044;-60
2023/08/31 00:04:20;;;;;;;9.10;6.47;;;;;;;;;;2091201;28;20040;-60
2023/08/31 00:05:22;;;;;;;8.77;6.63;;;;;;;;;;2090902;28;20053;-60
2023/08/31 00:06:22;;;;;;;7.35;6.18;;;;;;;;;;2091065;28;20044;-60
2023/08/31 00:07:23;;;;;;;7.55;6.40;;;;;;;;;;2090868;28;20075;-60
2023/08/31 00:08:24;;;;;;;9.18;6.50;;;;;;;;;;2090958;28;20040;-61
2023/08/31 00:09:25;;;;;;;7.43;6.05;;;;;;;;;;2090772;28;20049;-60
2023/08/31 00:10:25;;;;;;;7.18;6.47;;;;;;;;;;2091210;28;20032;-61
2023/08/31 00:11:26;;;;;;;9.65;6.82;;;;;;;;;;2090530;28;20451;-61
2023/08/31 00:12:27;;;;;;;7.65;6.57;;;;;;;;;;2090965;28;20036;-60
2023/08/31 00:13:27;;;;;;;7.13;6.38;;;;;;;;;;2090592;28;20507;-60
2023/08/31 00:14:28;;;;;;;8.80;6.60;;;;;;;;;;2090970;28;20120;-60
2023/08/31 00:15:29;;;;;;;7.32;6.55;;;;;;;;;;2091144;28;20039;-60
2023/08/31 00:16:30;;;;;;;9.07;6.50;;;;;;;;;;2090861;28;20041;-61
2023/08/31 00:17:30;;;;;;;7.10;6.40;;;;;;;;;;2091062;28;20057;-61
2023/08/31 00:18:31;;;;;;;10.77;7.30;;;;;;;;;;2090499;28;20381;-61
2023/08/31 00:19:32;;;;;;;8.23;6.38;;;;;;;;;;2090504;28;20040;-60
2023/08/31 00:20:33;;;;;;;9.73;7.93;;;;;;;;;;2090239;28;20048;-60
2023/08/31 00:21:34;;;;;;;9.90;7.30;;;;;;;;;;2090995;28;20049;-60
2023/08/31 00:22:34;;;;;;;9.25;7.40;;;;;;;;;;2090843;28;20044;-61
2023/08/31 00:23:36;;;;;;;8.77;7.40;;;;;;;;;;2090665;28;20049;-60
2023/08/31 00:24:37;;;;;;;8.98;6.40;;;;;;;;;;2090804;28;20025;-61
2023/08/31 00:25:38;;;;;;;9.10;7.28;;;;;;;;;;2090781;28;20045;-61
2023/08/31 00:26:42;;;;;;;8.13;6.82;;;;;;;;;;2090814;28;20086;-61
2023/08/31 00:27:42;;;;;;;7.45;6.72;;;;;;;;;;2090842;28;20028;-60
2023/08/31 00:28:44;;;;;;;8.60;6.65;;;;;;;;;;2091064;28;20048;-60
2023/08/31 00:29:49;;;;;;;8.18;6.93;;;;;;;;;;2090749;28;20029;-60
2023/08/31 00:30:50;;;;;;;7.85;6.28;;;;;;;;;;2089907;28;20037;-61
2023/08/31 00:31:53;;;;;;;8.05;7.15;;;;;;;;;;2090153;28;20045;-61
2023/08/31 00:32:53;;;;;;;9.85;6.70;;;;;;;;;;2090236;28;20096;-61
2023/08/31 00:33:55;;;;;;;7.72;6.22;;;;;;;;;;2082254;28;20037;-61
2023/08/31 00:34:56;;;;;;;7.15;6.38;;;;;;;;;;2089666;28;20116;-60
2023/08/31 00:36:01;;;;;;;7.20;6.50;;;;;;;;;;2089974;28;20108;-60
2023/08/31 00:37:01;;;;;;;8.00;6.63;;;;;;;;;;2090722;28;20396;-60
2023/08/31 00:38:05;;;;;;;6.95;6.22;;;;;;;;;;2090180;28;20091;-60
2023/08/31 00:39:06;;;;;;;11.93;6.35;;;;;;;;;;2089631;28;20486;-61
2023/08/31 00:40:08;;;;;;;7.70;5.97;;;;;;;;;;2090594;28;20041;-60
2023/08/31 00:41:10;;;;;;;7.97;7.18;;;;;;;;;;2089905;28;20045;-61
2023/08/31 00:42:13;;;;;;;8.68;6.88;;;;;;;;;;2090190;28;20048;-60
2023/08/31 00:43:17;;;;;;;7.75;6.18;;;;;;;;;;2081649;28;20037;-60
2023/08/31 00:44:18;;;;;;;7.82;6.05;;;;;;;;;;2082409;28;20053;-61
2023/08/31 00:45:19;;;;;;;7.35;6.53;;;;;;;;;;2090642;28;20040;-61
2023/08/31 00:46:19;;;;;;;8.05;7.00;;;;;;;;;;2090369;28;20064;-60
2023/08/31 00:47:20;;;;;;;8.50;6.88;;;;;;;;;;2081719;28;20045;-60
2023/08/31 00:48:21;;;;;;;7.78;6.50;;;;;;;;;;2089772;28;20045;-60
2023/08/31 00:49:22;;;;;;;6.60;5.57;;;;;;;;;;2081764;28;20042;-60
2023/08/31 00:50:22;;;;;;;7.07;6.07;;;;;;;;;;2081645;28;20041;-61
2023/08/31 00:51:23;;;;;;;8.20;6.50;;;;;;;;;;2090445;28;20492;-61
2023/08/31 00:52:24;;;;;;;6.40;5.80;;;;;;;;;;2089621;28;20049;-61
2023/08/31 00:53:25;;;;;;;6.93;5.97;;;;;;;;;;2081413;28;20045;-61
2023/08/31 00:54:26;;;;;;;9.90;6.20;;;;;;;;;;2081595;28;20040;-61
2023/08/31 00:55:29;;;;;;;9.13;6.80;;;;;;;;;;2082157;28;20414;-61
2023/08/31 00:56:29;;;;;;;9.48;6.60;;;;;;;;;;2090036;28;20037;-60
2023/08/31 00:57:30;;;;;;;7.78;5.90;;;;;;;;;;2090394;28;20025;-61
2023/08/31 00:58:31;;;;;;;8.50;6.47;;;;;;;;;;2088942;28;20128;-61
2023/08/31 00:59:32;;;;;;;7.45;5.78;;;;;;;;;;2089823;28;20033;-61
2023/08/31 01:00:40;;;;;;;9.02;6.25;;;;;;;;;;2090482;28;20378;-61
2023/08/31 01:01:43;;;;;;;7.07;6.22;;;;;;;;;;2090295;28;20036;-60
2023/08/31 01:02:50;;;;;;;6.75;6.05;;;;;;;;;;2089640;28;20037;-60
2023/08/31 01:03:57;;;;;;;5.70;5.20;;;;;;;;;;2088894;28;20202;-62
2023/08/31 01:05:12;;;;;;;6.18;5.47;;;;;;;;;;2090006;28;20044;-62
2023/08/31 01:06:25;;;;;;;6.28;5.68;;;;;;;;;;2089532;28;20045;-60
2023/08/31 01:07:26;;;;;;;8.80;6.03;;;;;;;;;;2089961;28;20469;-61
2023/08/31 01:08:29;;;;;;;7.35;5.75;;;;;;;;;;2089946;28;20056;-61
2023/08/31 01:09:39;;;;;;;7.20;5.60;;;;;;;;;;2090670;28;20037;-60
2023/08/31 01:10:40;;;;;;;7.28;5.68;;;;;;;;;;2090143;28;20036;-61
2023/08/31 01:11:45;;;;;;;6.25;5.18;;;;;;;;;;2082103;28;20103;-61
2023/08/31 01:12:49;;;;;;;6.50;5.40;;;;;;;;;;2089975;28;20033;-61
2023/08/31 01:13:55;;;;;;;6.38;5.43;;;;;;;;;;2089848;28;20052;-61
2023/08/31 01:14:59;;;;;;;7.38;5.53;;;;;;;;;;2081466;28;20041;-61
2023/08/31 01:16:00;;;;;;;8.20;5.60;;;;;;;;;;2082474;28;20488;-61
2023/08/31 01:17:04;;;;;;;6.30;5.13;;;;;;;;;;2090074;28;20047;-61
2023/08/31 01:18:05;;;;;;;7.88;5.70;;;;;;;;;;2081435;28;20044;-60
2023/08/31 01:19:08;;;;;;;6.63;5.60;;;;;;;;;;2081525;28;20068;-61
2023/08/31 01:20:09;;;;;;;8.32;5.20;;;;;;;;;;2090145;28;20044;-60
2023/08/31 01:21:13;;;;;;;8.55;5.57;;;;;;;;;;2090264;28;20033;-60
2023/08/31 01:22:32;;;;;;;9.18;6.05;;;;;;;;;;2089858;28;20037;-60
2023/08/31 01:23:45;;;;;;;9.05;5.93;;;;;;;;;;2090290;28;20037;-61
2023/08/31 01:24:46;;;;;;;8.73;5.90;;;;;;;;;;2090170;28;20041;-61
2023/08/31 01:25:48;;;;;;;6.78;5.65;;;;;;;;;;2073252;28;20038;-60
2023/08/31 01:26:49;;;;;;;7.13;5.75;;;;;;;;;;2065904;28;20042;-60
2023/08/31 01:27:52;;;;;;;7.25;5.95;;;;;;;;;;2082091;28;20037;-61
2023/08/31 01:28:54;;;;;;;7.03;6.32;;;;;;;;;;2089834;28;20024;-60
2023/08/31 01:29:54;;;;;;;7.88;6.07;;;;;;;;;;2089604;28;20059;-60
2023/08/31 01:30:55;;;;;;;6.85;6.00;;;;;;;;;;2089990;28;20036;-61
2023/08/31 01:31:56;;;;;;;6.20;5.60;;;;;;;;;;2090265;28;20064;-60
2023/08/31 01:32:57;;;;;;;6.95;5.90;;;;;;;;;;2089706;28;20033;-61
2023/08/31 01:33:57;;;;;;;6.97;5.75;;;;;;;;;;2089420;28;20046;-61
2023/08/31 01:34:58;;;;;;;6.18;5.50;;;;;;;;;;2090202;28;20392;-61
2023/08/31 01:35:59;;;;;;;7.55;5.80;;;;;;;;;;2089768;28;20029;-61
2023/08/31 01:37:00;;;;;;;8.48;6.35;;;;;;;;;;2089661;28;20072;-62
2023/08/31 01:38:01;;;;;;;6.85;5.50;;;;;;;;;;2089414;28;20412;-62
2023/08/31 01:39:22;;;;;;;7.88;6.22;;;;;;;;;;2090263;28;20060;-62
2023/08/31 01:40:24;;;;;;;7.80;5.70;;;;;;;;;;2085767;28;20392;-62
2023/08/31 01:41:25;;;;;;;8.90;6.45;;;;;;;;;;2089732;28;20036;-62
2023/08/31 01:42:26;;;;;;;10.18;6.40;;;;;;;;;;2089578;28;20045;-62
2023/08/31 01:43:27;;;;;;;7.82;6.30;;;;;;;;;;2089951;28;20048;-62
2023/08/31 01:44:28;;;;;;;6.57;5.53;;;;;;;;;;2089610;28;20424;-62
2023/08/31 01:45:29;;;;;;;8.52;6.28;;;;;;;;;;2089651;28;20369;-62
2023/08/31 01:46:30;;;;;;;8.15;6.28;;;;;;;;;;2089285;28;20043;-61
2023/08/31 01:47:31;;;;;;;7.95;6.53;;;;;;;;;;2089272;28;20171;-62
2023/08/31 01:48:32;;;;;;;7.13;6.40;;;;;;;;;;2090136;28;20037;-62
2023/08/31 01:49:37;;;;;;;7.57;5.70;;;;;;;;;;2081291;28;20394;-62
2023/08/31 01:50:38;;;;;;;7.55;5.90;;;;;;;;;;2082089;28;20041;-62
2023/08/31 01:51:40;;;;;;;7.25;5.93;;;;;;;;;;2090308;28;20139;-62
2023/08/31 01:52:41;;;;;;;9.05;6.50;;;;;;;;;;2090230;28;20120;-62
2023/08/31 01:53:42;;;;;;;7.90;6.60;;;;;;;;;;2088723;28;20128;-62
2023/08/31 01:54:42;;;;;;;7.53;6.72;;;;;;;;;;2089510;28;20080;-62
2023/08/31 01:55:43;;;;;;;9.10;6.85;;;;;;;;;;2081406;28;20037;-62
2023/08/31 01:56:44;;;;;;;8.52;6.88;;;;;;;;;;2081293;28;20049;-62
2023/08/31 01:57:45;;;;;;;7.68;6.88;;;;;;;;;;2081390;28;20037;-62
2023/08/31 01:58:51;;;;;;;7.93;6.57;;;;;;;;;;2081926;28;20053;-62
2023/08/31 01:59:52;;;;;;;11.43;7.00;;;;;;;;;;2081350;28;20041;-62
2023/08/31 02:00:53;;;;;;;7.72;6.78;;;;;;;;;;2089824;28;20475;-62
2023/08/31 02:01:53;;;;;;;8.60;7.03;;;;;;;;;;2090182;28;20029;-62
2023/08/31 02:02:54;;;;;;;10.70;6.93;;;;;;;;;;2088874;28;20048;-62
2023/08/31 02:03:55;;;;;;;7.63;6.88;;;;;;;;;;2089848;28;20049;-62
2023/08/31 02:04:55;;;;;;;8.77;7.18;;;;;;;;;;2090194;28;20040;-62
2023/08/31 02:05:59;;;;;;;8.35;7.40;;;;;;;;;;2089415;28;20029;-62
2023/08/31 02:06:59;;;;;;;11.27;7.25;;;;;;;;;;2089644;28;20461;-62
2023/08/31 02:08:00;;;;;;;9.10;6.93;;;;;;;;;;2090060;28;20393;-62
2023/08/31 02:09:01;;;;;;;8.20;6.88;;;;;;;;;;2088865;28;20477;-62
2023/08/31 02:10:02;;;;;;;8.98;7.38;;;;;;;;;;2081297;28;20044;-62
2023/08/31 02:11:03;;;;;;;7.80;6.95;;;;;;;;;;2082009;28;20052;-61
2023/08/31 02:12:03;;;;;;;8.45;7.60;;;;;;;;;;2091172;28;20398;-61
2023/08/31 02:13:04;;;;;;;8.23;7.30;;;;;;;;;;2082495;28;20045;-62
2023/08/31 02:14:05;;;;;;;8.85;7.97;;;;;;;;;;2083191;28;20037;-61
2023/08/31 02:15:06;;;;;;;9.82;7.85;;;;;;;;;;2091816;28;20040;-60
2023/08/31 02:16:07;;;;;;;8.73;7.75;;;;;;;;;;2091399;28;20041;-61
2023/08/31 02:17:08;;;;;;;7.65;6.95;;;;;;;;;;2091498;28;20036;-60
2023/08/31 02:18:08;;;;;;;9.60;7.95;;;;;;;;;;2082926;28;20038;-61
2023/08/31 02:19:09;;;;;;;8.10;7.30;;;;;;;;;;2091276;28;20409;-61
2023/08/31 02:20:10;;;;;;;13.85;8.15;;;;;;;;;;2091078;28;20041;-61
2023/08/31 02:21:11;;;;;;;8.07;7.20;;;;;;;;;;2082517;28;20041;-60
2023/08/31 02:22:15;;;;;;;11.13;8.20;;;;;;;;;;2090460;28;20045;-62
2023/08/31 02:23:16;;;;;;;8.85;7.75;;;;;;;;;;2090656;28;20398;-61
2023/08/31 02:24:17;;;;;;;8.77;7.55;;;;;;;;;;2082738;28;20470;-60
2023/08/31 02:25:17;;;;;;;10.48;8.32;;;;;;;;;;2091103;28;20033;-60
2023/08/31 02:26:21;;;;;;;9.45;8.32;;;;;;;;;;2090909;28;20044;-61
2023/08/31 02:27:21;;;;;;;11.50;8.35;;;;;;;;;;2083066;28;20477;-60
2023/08/31 02:28:23;;;;;;;9.65;8.05;;;;;;;;;;2091102;28;20040;-61
2023/08/31 02:29:24;;;;;;;8.57;7.68;;;;;;;;;;2092026;28;20049;-60
2023/08/31 02:30:25;;;;;;;11.40;8.68;;;;;;;;;;2091763;28;20473;-60
2023/08/31 02:31:25;;;;;;;9.75;8.13;;;;;;;;;;2091665;28;20033;-61
2023/08/31 02:32:26;;;;;;;8.98;8.02;;;;;;;;;;2090826;28;20048;-60
2023/08/31 02:33:27;;;;;;;10.60;8.40;;;;;;;;;;2091123;28;20033;-60
2023/08/31 02:34:27;;;;;;;9.93;7.85;;;;;;;;;;2091398;28;20041;-60
2023/08/31 02:35:28;;;;;;;9.02;7.97;;;;;;;;;;2091006;28;20033;-60
2023/08/31 02:36:29;;;;;;;13.13;8.68;;;;;;;;;;2091200;28;20083;-61
2023/08/31 02:37:30;;;;;;;9.73;8.40;;;;;;;;;;2091072;28;20401;-62
2023/08/31 02:38:30;;;;;;;10.00;8.32;;;;;;;;;;2090914;28;20527;-60
2023/08/31 02:39:31;;;;;;;9.50;8.50;;;;;;;;;;2090969;28;20096;-61
2023/08/31 02:40:32;;;;;;;9.30;7.72;;;;;;;;;;2091344;28;20049;-61
2023/08/31 02:41:33;;;;;;;8.98;7.78;;;;;;;;;;2091023;28;20048;-60
2023/08/31 02:42:33;;;;;;;10.32;8.55;;;;;;;;;;2090942;28;20033;-60
2023/08/31 02:43:34;;;;;;;10.57;9.07;;;;;;;;;;2091526;28;20044;-61
2023/08/31 02:44:35;;;;;;;11.55;9.02;;;;;;;;;;2089930;28;20099;-61
2023/08/31 02:45:35;;;;;;;9.07;8.10;;;;;;;;;;2090845;28;20025;-61
2023/08/31 02:46:36;;;;;;;10.88;7.85;;;;;;;;;;2083012;28;20045;-61
2023/08/31 02:47:37;;;;;;;10.07;9.02;;;;;;;;;;2090383;28;20047;-62
2023/08/31 02:48:38;;;;;;;10.50;8.05;;;;;;;;;;2091525;28;20052;-60
2023/08/31 02:49:39;;;;;;;10.05;8.52;;;;;;;;;;2091574;28;20049;-60
2023/08/31 02:50:40;;;;;;;13.05;8.65;;;;;;;;;;2090595;28;20041;-60
2023/08/31 02:51:41;;;;;;;9.70;8.70;;;;;;;;;;2082727;28;20041;-60
2023/08/31 02:52:42;;;;;;;10.73;8.68;;;;;;;;;;2090919;28;20502;-60
2023/08/31 02:53:42;;;;;;;11.02;8.98;;;;;;;;;;2090904;28;20037;-61
2023/08/31 02:54:43;;;;;;;10.45;9.27;;;;;;;;;;2090896;28;20040;-61
2023/08/31 02:55:44;;;;;;;9.40;8.23;;;;;;;;;;2091143;28;20040;-62
2023/08/31 02:56:45;;;;;;;14.15;9.48;;;;;;;;;;2090909;28;20331;-61
2023/08/31 02:57:46;;;;;;;11.70;8.88;;;;;;;;;;2082573;28;20048;-61
2023/08/31 02:58:46;;;;;;;12.77;8.02;;;;;;;;;;2089943;28;20044;-60
2023/08/31 02:59:50;;;;;;;10.90;9.05;;;;;;;;;;2092032;28;20037;-62
2023/08/31 03:00:51;;;;;;;9.30;8.32;;;;;;;;;;2091366;28;20495;-60
2023/08/31 03:01:52;;;;;;;10.07;8.27;;;;;;;;;;2090453;28;20433;-62
2023/08/31 03:02:53;;;;;;;9.18;8.27;;;;;;;;;;2090834;28;20052;-60
2023/08/31 03:03:54;;;;;;;10.55;8.20;;;;;;;;;;2090700;28;20394;-60
2023/08/31 03:04:56;;;;;;;10.30;9.02;;;;;;;;;;2090393;28;20527;-61
2023/08/31 03:05:58;;;;;;;10.93;8.63;;;;;;;;;;2090538;28;20495;-61
2023/08/31 03:06:59;;;;;;;9.60;8.60;;;;;;;;;;2082628;28;20030;-61
2023/08/31 03:07:59;;;;;;;11.38;9.57;;;;;;;;;;2082493;28;20041;-60
2023/08/31 03:09:02;;;;;;;11.18;8.90;;;;;;;;;;2082557;28;20421;-61
2023/08/31 03:10:02;;;;;;;10.35;8.45;;;;;;;;;;2091027;28;20049;-60
2023/08/31 03:11:04;;;;;;;11.13;8.88;;;;;;;;;;2089919;28;20420;-62
2023/08/31 03:12:05;;;;;;;10.05;8.77;;;;;;;;;;2091015;28;20381;-62
2023/08/31 03:13:06;;;;;;;10.48;8.50;;;;;;;;;;2090718;28;20045;-60
2023/08/31 03:14:06;;;;;;;11.30;8.52;;;;;;;;;;2090706;28;20558;-61
2023/08/31 03:15:07;;;;;;;10.40;9.02;;;;;;;;;;2091942;28;20512;-60
2023/08/31 03:16:08;;;;;;;11.75;8.23;;;;;;;;;;2090919;28;20053;-61
2023/08/31 03:17:09;;;;;;;12.23;8.50;;;;;;;;;;2090277;28;20048;-60
2023/08/31 03:18:09;;;;;;;11.35;9.27;;;;;;;;;;2090762;28;20032;-61
2023/08/31 03:19:10;;;;;;;10.13;7.97;;;;;;;;;;2091279;28;20473;-62
2023/08/31 03:20:11;;;;;;;10.00;8.68;;;;;;;;;;2090718;28;20033;-61
2023/08/31 03:21:12;;;;;;;9.23;8.20;;;;;;;;;;2082436;28;20034;-61
2023/08/31 03:22:13;;;;;;;9.52;8.30;;;;;;;;;;2081886;28;20053;-62
2023/08/31 03:23:14;;;;;;;9.23;8.23;;;;;;;;;;2082836;28;20417;-62
2023/08/31 03:24:14;;;;;;;8.88;7.97;;;;;;;;;;2082727;28;20478;-60
2023/08/31 03:25:15;;;;;;;9.90;7.65;;;;;;;;;;2089983;28;20048;-60
2023/08/31 03:26:16;;;;;;;9.15;7.75;;;;;;;;;;2098929;28;20036;-60
2023/08/31 03:27:19;;;;;;;10.77;7.70;;;;;;;;;;2090300;28;20045;-62
2023/08/31 03:28:20;;;;;;;9.25;7.47;;;;;;;;;;2090399;28;20049;-60
2023/08/31 03:29:20;;;;;;;9.02;7.57;;;;;;;;;;2091238;28;20049;-60
2023/08/31 03:30:21;;;;;;;11.68;7.65;;;;;;;;;;2090904;28;20051;-62
2023/08/31 03:31:22;;;;;;;8.73;7.50;;;;;;;;;;2090619;28;20068;-62
2023/08/31 03:32:23;;;;;;;8.52;7.07;;;;;;;;;;2090664;28;20088;-60
2023/08/31 03:33:24;;;;;;;10.68;7.85;;;;;;;;;;2090481;28;20558;-60
2023/08/31 03:34:28;;;;;;;10.35;7.75;;;;;;;;;;2082369;28;20136;-60
2023/08/31 03:35:29;;;;;;;12.23;7.95;;;;;;;;;;2090402;28;20049;-60
2023/08/31 03:36:32;;;;;;;11.18;8.32;;;;;;;;;;2090690;28;20053;-61
2023/08/31 03:37:33;;;;;;;11.00;8.35;;;;;;;;;;2082300;28;20457;-62
2023/08/31 03:38:37;;;;;;;10.10;8.15;;;;;;;;;;2081823;28;20451;-62
2023/08/31 03:39:40;;;;;;;9.07;8.05;;;;;;;;;;2083207;28;20072;-61
2023/08/31 03:40:42;;;;;;;10.57;8.40;;;;;;;;;;2091073;28;20032;-60
2023/08/31 03:41:43;;;;;;;8.85;7.95;;;;;;;;;;2098734;28;20040;-60
2023/08/31 03:42:43;;;;;;;10.07;7.70;;;;;;;;;;2090854;28;20053;-62
2023/08/31 03:43:44;;;;;;;8.85;6.95;;;;;;;;;;2090579;28;20033;-59
2023/08/31 03:44:45;;;;;;;11.27;8.02;;;;;;;;;;2082022;28;20042;-59
2023/08/31 03:45:46;;;;;;;10.05;7.57;;;;;;;;;;2082299;28;20466;-60
2023/08/31 03:46:47;;;;;;;10.90;8.05;;;;;;;;;;2090714;28;20037;-60
2023/08/31 03:47:48;;;;;;;11.15;8.70;;;;;;;;;;2089792;28;20519;-60
2023/08/31 03:48:49;;;;;;;12.50;8.25;;;;;;;;;;2081616;28;20052;-60
2023/08/31 03:49:50;;;;;;;8.13;7.15;;;;;;;;;;2090661;28;20037;-60
2023/08/31 03:50:51;;;;;;;10.88;7.90;;;;;;;;;;2090252;28;20465;-60
2023/08/31 03:51:53;;;;;;;10.13;7.43;;;;;;;;;;2082543;28;20044;-60
2023/08/31 03:52:54;;;;;;;10.48;6.82;;;;;;;;;;2090827;28;20041;-60
2023/08/31 03:53:56;;;;;;;8.90;7.30;;;;;;;;;;2090351;28;20120;-62
2023/08/31 03:54:57;;;;;;;7.90;6.47;;;;;;;;;;2090350;28;20500;-60
2023/08/31 03:55:58;;;;;;;11.23;7.53;;;;;;;;;;2090868;28;20044;-62
2023/08/31 03:56:59;;;;;;;9.10;7.20;;;;;;;;;;2098701;28;20043;-61
2023/08/31 03:58:00;;;;;;;9.00;6.82;;;;;;;;;;2090716;28;20056;-61
2023/08/31 03:59:02;;;;;;;7.57;6.55;;;;;;;;;;2081904;28;20493;-60
2023/08/31 04:00:08;;;;;;;9.15;6.80;;;;;;;;;;2082552;28;20458;-62
2023/08/31 04:01:14;;;;;;;7.78;6.15;;;;;;;;;;2090766;28;20040;-61
2023/08/31 04:02:16;;;;;;;8.88;6.70;;;;;;;;;;2089456;28;20037;-60
2023/08/31 04:03:17;;;;;;;7.93;6.85;;;;;;;;;;2082150;28;20382;-62
2023/08/31 04:04:17;;;;;;;9.05;6.80;;;;;;;;;;2090540;28;20066;-62
2023/08/31 04:05:18;;;;;;;9.90;7.35;;;;;;;;;;2091041;28;20355;-62
2023/08/31 04:06:19;;;;;;;8.45;6.13;;;;;;;;;;2090993;28;20052;-61
2023/08/31 04:07:19;;;;;;;10.73;6.53;;;;;;;;;;2091160;28;20040;-61
2023/08/31 04:08:20;;;;;;;9.30;6.68;;;;;;;;;;2090926;28;20033;-61
2023/08/31 04:09:21;;;;;;;8.43;6.25;;;;;;;;;;2090082;28;20052;-62
2023/08/31 04:10:23;;;;;;;8.20;6.70;;;;;;;;;;2090436;28;20064;-61
2023/08/31 04:11:26;;;;;;;6.80;6.10;;;;;;;;;;2090024;28;20049;-62
2023/08/31 04:12:29;;;;;;;10.82;6.15;;;;;;;;;;2090266;28;20037;-60
2023/08/31 04:13:30;;;;;;;7.22;6.00;;;;;;;;;;2090895;28;20045;-61
2023/08/31 04:14:31;;;;;;;9.35;6.60;;;;;;;;;;2090578;28;20037;-62
2023/08/31 04:15:31;;;;;;;7.30;6.30;;;;;;;;;;2090131;28;20532;-60
2023/08/31 04:16:32;;;;;;;9.52;5.82;;;;;;;;;;2090292;28;20044;-60
2023/08/31 04:17:33;;;;;;;8.93;6.32;;;;;;;;;;2089704;28;20528;-60
2023/08/31 04:18:34;;;;;;;7.18;5.75;;;;;;;;;;2090890;28;20108;-62
2023/08/31 04:19:36;;;;;;;8.63;6.47;;;;;;;;;;2090845;28;20036;-61
2023/08/31 04:20:37;;;;;;;10.52;6.13;;;;;;;;;;2090687;28;20036;-61
2023/08/31 04:21:38;;;;;;;7.55;6.20;;;;;;;;;;2089776;28;20524;-62
2023/08/31 04:22:39;;;;;;;8.63;6.07;;;;;;;;;;2089810;28;20037;-60
2023/08/31 04:23:39;;;;;;;9.35;6.65;;;;;;;;;;2090903;28;20052;-62
2023/08/31 04:24:40;;;;;;;7.65;5.63;;;;;;;;;;2090158;28;20033;-60
2023/08/31 04:25:41;;;;;;;8.10;6.35;;;;;;;;;;2090678;28;20021;-60
2023/08/31 04:26:42;;;;;;;9.30;5.88;;;;;;;;;;2090930;28;20148;-62
2023/08/31 04:27:45;;;;;;;9.48;5.90;;;;;;;;;;2090956;28;20588;-62
2023/08/31 04:28:45;;;;;;;7.05;5.55;;;;;;;;;;2090778;28;20048;-62
2023/08/31 04:29:46;;;;;;;9.20;6.10;;;;;;;;;;2091210;28;20052;-61
2023/08/31 04:30:47;;;;;;;7.05;5.60;;;;;;;;;;2090849;28;20428;-62
2023/08/31 04:31:48;;;;;;;7.80;5.60;;;;;;;;;;2090788;28;20057;-62
2023/08/31 04:32:48;;;;;;;8.68;5.95;;;;;;;;;;2091456;28;20041;-62
2023/08/31 04:33:53;;;;;;;7.63;5.43;;;;;;;;;;2089919;28;20477;-62
2023/08/31 04:34:54;;;;;;;9.20;5.35;;;;;;;;;;2090660;28;20383;-62
2023/08/31 04:35:54;;;;;;;8.90;5.53;;;;;;;;;;2090993;28;20041;-62
2023/08/31 04:36:55;;;;;;;7.95;5.68;;;;;;;;;;2090645;28;20060;-62
2023/08/31 04:37:56;;;;;;;8.05;6.13;;;;;;;;;;2090923;28;20044;-62
2023/08/31 04:38:56;;;;;;;6.68;5.60;;;;;;;;;;2090813;28;20037;-61
2023/08/31 04:39:57;;;;;;;8.77;5.03;;;;;;;;;;2090668;28;20466;-62
2023/08/31 04:40:59;;;;;;;7.72;5.18;;;;;;;;;;2090754;28;20052;-61
2023/08/31 04:42:00;;;;;;;9.10;5.65;;;;;;;;;;2090692;28;20396;-62
2023/08/31 04:43:01;;;;;;;6.85;5.22;;;;;;;;;;2090895;28;20033;-62
2023/08/31 04:44:02;;;;;;;6.65;5.15;;;;;;;;;;2090627;28;20040;-62
2023/08/31 04:45:03;;;;;;;7.38;5.18;;;;;;;;;;2090618;28;20045;-62
2023/08/31 04:46:04;;;;;;;9.45;5.63;;;;;;;;;;2090864;28;20487;-62
2023/08/31 04:47:04;;;;;;;6.28;4.97;;;;;;;;;;2090547;28;20485;-61
2023/08/31 04:48:05;;;;;;;8.07;5.65;;;;;;;;;;2090653;28;20079;-61
2023/08/31 04:49:06;;;;;;;8.38;5.15;;;;;;;;;;2090719;28;20405;-61
2023/08/31 04:50:07;;;;;;;5.63;4.55;;;;;;;;;;2090706;28;20033;-62
2023/08/31 04:51:09;;;;;;;7.07;4.88;;;;;;;;;;2090624;28;20048;-60
2023/08/31 04:52:10;;;;;;;7.85;4.47;;;;;;;;;;2090313;28;20051;-61
2023/08/31 04:53:11;;;;;;;6.55;4.13;;;;;;;;;;2090548;28;20029;-61
2023/08/31 04:54:11;;;;;;;6.97;4.43;;;;;;;;;;2090438;28;20508;-62
2023/08/31 04:55:13;;;;;;;6.57;4.60;;;;;;;;;;2090683;28;20025;-62
2023/08/31 04:56:13;;;;;;;6.22;4.38;;;;;;;;;;2090530;28;20048;-62
2023/08/31 04:57:14;;;;;;;9.00;5.45;;;;;;;;;;2090752;28;20048;-61
2023/08/31 04:58:15;;;;;;;6.55;4.57;;;;;;;;;;2090481;28;20037;-62
2023/08/31 04:59:15;;;;;;;7.72;5.20;;;;;;;;;;2090847;28;20045;-62
2023/08/31 05:00:16;;;;;;;7.93;5.13;;;;;;;;;;2090490;28;20401;-62
2023/08/31 05:01:17;;;;;;;7.85;5.07;;;;;;;;;;2090666;28;20112;-61
2023/08/31 05:02:18;;;;;;;5.65;4.43;;;;;;;;;;2090210;28;20040;-61
2023/08/31 05:03:19;;;;;;;5.60;4.38;;;;;;;;;;2090622;28;20041;-61
2023/08/31 05:04:20;;;;;;;6.18;4.05;;;;;;;;;;2090906;28;20179;-60
2023/08/31 05:05:20;;;;;;;5.78;4.40;;;;;;;;;;2090427;28;20063;-62
2023/08/31 05:06:21;;;;;;;9.88;5.10;;;;;;;;;;2090868;28;20053;-61
2023/08/31 05:07:22;;;;;;;8.10;4.63;;;;;;;;;;2090520;28;20041;-61
2023/08/31 05:08:23;;;;;;;5.75;4.25;;;;;;;;;;2090411;28;20041;-61
2023/08/31 05:09:24;;;;;;;7.25;4.45;;;;;;;;;;2090460;28;20067;-62
2023/08/31 05:10:24;;;;;;;7.07;4.50;;;;;;;;;;2090521;28;20128;-62
2023/08/31 05:11:25;;;;;;;6.13;4.72;;;;;;;;;;2090456;28;20076;-61
2023/08/31 05:12:26;;;;;;;7.32;4.72;;;;;;;;;;2090401;28;20025;-62
2023/08/31 05:13:26;;;;;;;6.47;4.72;;;;;;;;;;2090010;28;20068;-61
2023/08/31 05:14:27;;;;;;;4.60;4.03;;;;;;;;;;2090335;28;20484;-62
2023/08/31 05:15:28;;;;;;;6.72;4.85;;;;;;;;;;2090399;28;20041;-62
2023/08/31 05:16:29;;;;;;;6.35;4.22;;;;;;;;;;2090526;28;20041;-61
2023/08/31 05:17:30;;;;;;;6.82;4.70;;;;;;;;;;2090370;28;20132;-62
2023/08/31 05:18:31;;;;;;;6.75;4.80;;;;;;;;;;2090546;28;20037;-62
2023/08/31 05:19:32;;;;;;;9.23;4.47;;;;;;;;;;2090445;28;20037;-62
2023/08/31 05:20:32;;;;;;;7.22;4.72;;;;;;;;;;2090455;28;20025;-62
2023/08/31 05:21:33;;;;;;;7.43;4.38;;;;;;;;;;2090298;28;20040;-61
2023/08/31 05:22:34;;;;;;;6.20;4.60;;;;;;;;;;2090528;28;20045;-62
2023/08/31 05:23:35;;;;;;;6.75;4.78;;;;;;;;;;2090458;28;20386;-62
2023/08/31 05:24:36;;;;;;;5.60;4.20;;;;;;;;;;2090361;28;20048;-62
2023/08/31 05:25:41;;;;;;;6.57;4.43;;;;;;;;;;2090378;28;20111;-62
2023/08/31 05:26:42;;;;;;;5.28;4.15;;;;;;;;;;2090795;28;20029;-61
2023/08/31 05:27:42;;;;;;;7.18;4.25;;;;;;;;;;2090317;28;20029;-61
2023/08/31 05:28:43;;;;;;;7.30;4.80;;;;;;;;;;2090356;28;20037;-61
2023/08/31 05:29:44;;;;;;;5.45;3.63;;;;;;;;;;2090238;28;20045;-60
2023/08/31 05:30:51;;;;;;;6.32;4.15;;;;;;;;;;2090191;28;20051;-62
2023/08/31 05:31:52;;;;;;;5.57;3.75;;;;;;;;;;2090484;28;20374;-62
2023/08/31 05:32:53;;;;;;;6.55;4.22;;;;;;;;;;2090294;28;20473;-62
2023/08/31 05:33:54;;;;;;;6.32;3.80;;;;;;;;;;2090660;28;20033;-62
2023/08/31 05:34:54;;;;;;;6.50;4.05;;;;;;;;;;2090399;28;20036;-62
2023/08/31 05:35:55;;;;;;;9.15;4.47;;;;;;;;;;2090536;28;20366;-62
2023/08/31 05:36:56;;;;;;;7.63;4.32;;;;;;;;;;2090154;28;20063;-62
2023/08/31 05:37:56;;;;;;;7.25;4.13;;;;;;;;;;2090412;28;20461;-62
2023/08/31 05:38:57;;;;;;;5.55;4.03;;;;;;;;;;2089977;28;20040;-60
2023/08/31 05:39:58;;;;;;;5.80;4.03;;;;;;;;;;2090227;28;20112;-62
2023/08/31 05:41:06;;;;;;;6.53;4.70;;;;;;;;;;2090376;28;20033;-62
2023/08/31 05:42:06;;;;;;;5.78;3.92;;;;;;;;;;2090342;28;20045;-62
2023/08/31 05:43:07;;;;;;;6.55;4.20;;;;;;;;;;2090356;28;20037;-62
2023/08/31 05:44:08;;;;;;;6.68;4.25;;;;;;;;;;2089911;28;20477;-62
2023/08/31 05:45:09;;;;;;;5.63;4.53;;;;;;;;;;2090041;28;20033;-62
2023/08/31 05:46:10;;;;;;;5.90;4.00;;;;;;;;;;2089844;28;20049;-62
2023/08/31 05:47:10;;;;;;;8.55;5.03;;;;;;;;;;2090225;28;20035;-62
2023/08/31 05:48:11;;;;;;;6.72;4.03;;;;;;;;;;2090246;28;20049;-62
2023/08/31 05:49:12;;;;;;;5.50;3.80;;;;;;;;;;2090273;28;20040;-63
2023/08/31 05:50:12;;;;;;;6.30;4.10;;;;;;;;;;2090244;28;20469;-62
2023/08/31 05:51:13;;;;;;;6.38;4.00;;;;;;;;;;2090071;28;20044;-62
2023/08/31 05:52:14;;;;;;;9.27;4.70;;;;;;;;;;2090184;28;20061;-62
2023/08/31 05:53:14;;;;;;;10.50;5.03;;;;;;;;;;2090209;28;20056;-62
2023/08/31 05:54:15;;;;;;;9.65;5.00;;;;;;;;;;2090167;28;20041;-61
2023/08/31 05:55:16;;;;;;;5.07;3.70;;;;;;;;;;2090151;28;20033;-62
2023/08/31 05:56:17;;;;;;;6.35;4.35;;;;;;;;;;2090150;28;20040;-62
2023/08/31 05:57:18;;;;;;;4.75;3.90;;;;;;;;;;2090250;28;20041;-62
2023/08/31 05:58:19;;;;;;;5.10;4.30;;;;;;;;;;2089944;28;20037;-62
2023/08/31 05:59:21;;;;;;;5.40;4.18;;;;;;;;;;2090047;28;20385;-62
2023/08/31 06:00:21;;;;;;;7.75;4.55;;;;;;;;;;2090115;28;20048;-63
2023/08/31 06:01:22;;;;;;;5.70;4.53;;;;;;;;;;2089886;28;20067;-62
2023/08/31 06:02:23;;;;;;;8.18;4.60;;;;;;;;;;2090241;28;20373;-62
2023/08/31 06:03:23;;;;;;;5.88;4.00;;;;;;;;;;2090215;28;20025;-62
2023/08/31 06:04:24;;;;;;;6.95;4.40;;;;;;;;;;2090111;28;20044;-62
2023/08/31 06:05:25;;;;;;;5.63;4.57;;;;;;;;;;2090114;28;20424;-62
2023/08/31 06:06:26;;;;;;;7.18;4.43;;;;;;;;;;2089813;28;20116;-62
2023/08/31 06:07:28;;;;;;;6.40;4.20;;;;;;;;;;2089487;28;20505;-63